Terminal Aerodrome Forecast
Issued by NWS

Home | Current Version | Previous Version | Text Only | Print | Product List | Glossary On
Versions: 1 2 3 4 5 6 7 8 9 10 11 12 13 14 15 16 17 18 19 20 21 22 23 24 25 26 27 28 29 30 31 32
000
FTUS46 KLOX 290540
TAFLAX
TAF
KLAX 290540Z 2906/3012 VRB03KT P6SM OVC015
     FM291900 25010KT P6SM BKN015
     FM292300 25010KT P6SM SCT015
     FM300300 25008KT P6SM BKN012
     FM300500 VRB03KT P6SM BKN010=

USA.gov is the U.S. government's official web portal to all federal, state and local government web resources and services.